sensor_id;sensor_type;location;lat;lon;timestamp;P1;durP1;ratioP1;P2;durP2;ratioP2
76867;SDS011;66168;45.478;11.060;2023-01-01T00:00:13;35.90;;;23.90;;
76867;SDS011;66168;45.478;11.060;2023-01-01T00:02:40;33.80;;;21.20;;
76867;SDS011;66168;45.478;11.060;2023-01-01T00:05:07;36.50;;;23.00;;
76867;SDS011;66168;45.478;11.060;2023-01-01T00:07:34;39.80;;;24.60;;
76867;SDS011;66168;45.478;11.060;2023-01-01T00:10:00;39.70;;;23.60;;
76867;SDS011;66168;45.478;11.060;2023-01-01T00:13:05;40.80;;;25.60;;
76867;SDS011;66168;45.478;11.060;2023-01-01T00:15:32;35.60;;;22.30;;
76867;SDS011;66168;45.478;11.060;2023-01-01T00:17:59;34.10;;;23.90;;
76867;SDS011;66168;45.478;11.060;2023-01-01T00:20:26;36.20;;;24.20;;
76867;SDS011;66168;45.478;11.060;2023-01-01T00:23:00;39.40;;;24.90;;
76867;SDS011;66168;45.478;11.060;2023-01-01T00:25:27;35.60;;;23.00;;
76867;SDS011;66168;45.478;11.060;2023-01-01T00:27:54;40.50;;;26.30;;
76867;SDS011;66168;45.478;11.060;2023-01-01T00:30:21;40.00;;;26.80;;
76867;SDS011;66168;45.478;11.060;2023-01-01T00:32:50;38.20;;;24.50;;
76867;SDS011;66168;45.478;11.060;2023-01-01T00:35:24;38.30;;;24.30;;
76867;SDS011;66168;45.478;11.060;2023-01-01T00:37:52;35.10;;;23.70;;
76867;SDS011;66168;45.478;11.060;2023-01-01T00:40:20;37.50;;;24.10;;
76867;SDS011;66168;45.478;11.060;2023-01-01T00:42:46;38.00;;;25.20;;
76867;SDS011;66168;45.478;11.060;2023-01-01T00:45:17;42.90;;;29.80;;
76867;SDS011;66168;45.478;11.060;2023-01-01T00:47:48;39.60;;;25.30;;
76867;SDS011;66168;45.478;11.060;2023-01-01T00:50:17;33.60;;;23.70;;
76867;SDS011;66168;45.478;11.060;2023-01-01T00:52:44;36.90;;;23.40;;
76867;SDS011;66168;45.478;11.060;2023-01-01T00:55:12;33.10;;;21.40;;
76867;SDS011;66168;45.478;11.060;2023-01-01T00:57:38;33.60;;;20.80;;
76867;SDS011;66168;45.478;11.060;2023-01-01T01:00:06;34.50;;;21.30;;
76867;SDS011;66168;45.478;11.060;2023-01-01T01:02:33;34.40;;;23.40;;
76867;SDS011;66168;45.478;11.060;2023-01-01T01:05:00;37.70;;;25.30;;
76867;SDS011;66168;45.478;11.060;2023-01-01T01:07:32;37.10;;;25.20;;
76867;SDS011;66168;45.478;11.060;2023-01-01T01:10:01;41.50;;;24.50;;
76867;SDS011;66168;45.478;11.060;2023-01-01T01:12:27;42.10;;;26.50;;
76867;SDS011;66168;45.478;11.060;2023-01-01T01:14:54;49.30;;;26.80;;
76867;SDS011;66168;45.478;11.060;2023-01-01T01:17:21;41.00;;;27.50;;
76867;SDS011;66168;45.478;11.060;2023-01-01T01:19:47;49.00;;;31.40;;
76867;SDS011;66168;45.478;11.060;2023-01-01T01:22:14;51.70;;;32.70;;
76867;SDS011;66168;45.478;11.060;2023-01-01T01:24:41;45.50;;;27.90;;
76867;SDS011;66168;45.478;11.060;2023-01-01T01:27:07;46.20;;;27.80;;
76867;SDS011;66168;45.478;11.060;2023-01-01T01:29:34;42.80;;;27.90;;
76867;SDS011;66168;45.478;11.060;2023-01-01T01:32:01;40.80;;;28.80;;
76867;SDS011;66168;45.478;11.060;2023-01-01T01:34:27;42.10;;;27.50;;
76867;SDS011;66168;45.478;11.060;2023-01-01T01:36:55;40.50;;;28.10;;
76867;SDS011;66168;45.478;11.060;2023-01-01T01:39:22;39.50;;;27.10;;
76867;SDS011;66168;45.478;11.060;2023-01-01T01:41:48;31.50;;;20.80;;
76867;SDS011;66168;45.478;11.060;2023-01-01T01:47:19;24.90;;;17.00;;
76867;SDS011;66168;45.478;11.060;2023-01-01T01:49:47;25.30;;;17.50;;
76867;SDS011;66168;45.478;11.060;2023-01-01T01:52:19;28.60;;;18.20;;
76867;SDS011;66168;45.478;11.060;2023-01-01T01:54:46;25.90;;;18.40;;
76867;SDS011;66168;45.478;11.060;2023-01-01T01:57:13;31.60;;;21.00;;
76867;SDS011;66168;45.478;11.060;2023-01-01T01:59:41;32.70;;;21.30;;
76867;SDS011;66168;45.478;11.060;2023-01-01T02:02:15;36.20;;;22.80;;
76867;SDS011;66168;45.478;11.060;2023-01-01T02:04:49;40.10;;;25.60;;
76867;SDS011;66168;45.478;11.060;2023-01-01T02:07:16;34.50;;;22.60;;
76867;SDS011;66168;45.478;11.060;2023-01-01T02:09:45;35.10;;;22.00;;
76867;SDS011;66168;45.478;11.060;2023-01-01T02:12:11;35.10;;;24.30;;
76867;SDS011;66168;45.478;11.060;2023-01-01T02:14:38;37.10;;;24.50;;
76867;SDS011;66168;45.478;11.060;2023-01-01T02:17:08;32.90;;;21.30;;
76867;SDS011;66168;45.478;11.060;2023-01-01T02:22:30;30.90;;;20.20;;
76867;SDS011;66168;45.478;11.060;2023-01-01T02:25:22;30.60;;;21.70;;
76867;SDS011;66168;45.478;11.060;2023-01-01T02:30:27;32.60;;;21.20;;
76867;SDS011;66168;45.478;11.060;2023-01-01T02:32:58;37.50;;;25.00;;
76867;SDS011;66168;45.478;11.060;2023-01-01T02:35:29;34.60;;;21.60;;
76867;SDS011;66168;45.478;11.060;2023-01-01T02:40:30;36.10;;;23.00;;
76867;SDS011;66168;45.478;11.060;2023-01-01T02:42:59;39.30;;;25.50;;
76867;SDS011;66168;45.478;11.060;2023-01-01T02:45:27;45.10;;;27.40;;
76867;SDS011;66168;45.478;11.060;2023-01-01T02:47:54;48.90;;;29.70;;
76867;SDS011;66168;45.478;11.060;2023-01-01T02:50:22;49.60;;;32.50;;
76867;SDS011;66168;45.478;11.060;2023-01-01T02:58:34;42.20;;;27.10;;
76867;SDS011;66168;45.478;11.060;2023-01-01T03:02:09;43.80;;;28.50;;
76867;SDS011;66168;45.478;11.060;2023-01-01T03:09:33;54.10;;;33.20;;
76867;SDS011;66168;45.478;11.060;2023-01-01T03:12:30;47.80;;;30.40;;
76867;SDS011;66168;45.478;11.060;2023-01-01T03:15:20;53.70;;;34.90;;
76867;SDS011;66168;45.478;11.060;2023-01-01T03:18:16;53.50;;;31.40;;
76867;SDS011;66168;45.478;11.060;2023-01-01T03:21:05;52.40;;;33.30;;
76867;SDS011;66168;45.478;11.060;2023-01-01T03:23:34;55.60;;;34.10;;
76867;SDS011;66168;45.478;11.060;2023-01-01T03:26:11;64.60;;;43.00;;
76867;SDS011;66168;45.478;11.060;2023-01-01T03:28:43;56.80;;;35.50;;
76867;SDS011;66168;45.478;11.060;2023-01-01T03:31:16;65.10;;;39.50;;
76867;SDS011;66168;45.478;11.060;2023-01-01T03:33:47;59.70;;;37.40;;
76867;SDS011;66168;45.478;11.060;2023-01-01T03:36:18;65.70;;;37.50;;
76867;SDS011;66168;45.478;11.060;2023-01-01T03:38:49;64.10;;;39.80;;
76867;SDS011;66168;45.478;11.060;2023-01-01T03:41:22;71.60;;;44.10;;
76867;SDS011;66168;45.478;11.060;2023-01-01T03:44:16;71.80;;;44.30;;
76867;SDS011;66168;45.478;11.060;2023-01-01T03:46:45;64.30;;;39.10;;
76867;SDS011;66168;45.478;11.060;2023-01-01T03:49:12;66.00;;;39.80;;
76867;SDS011;66168;45.478;11.060;2023-01-01T03:51:45;60.00;;;39.00;;
76867;SDS011;66168;45.478;11.060;2023-01-01T03:54:25;59.50;;;39.30;;
76867;SDS011;66168;45.478;11.060;2023-01-01T03:57:03;67.00;;;40.40;;
76867;SDS011;66168;45.478;11.060;2023-01-01T03:59:38;67.60;;;41.10;;
76867;SDS011;66168;45.478;11.060;2023-01-01T04:02:12;70.90;;;41.70;;
76867;SDS011;66168;45.478;11.060;2023-01-01T04:04:42;58.10;;;38.00;;
76867;SDS011;66168;45.478;11.060;2023-01-01T04:07:10;65.60;;;37.70;;
76867;SDS011;66168;45.478;11.060;2023-01-01T04:09:42;65.50;;;38.10;;
76867;SDS011;66168;45.478;11.060;2023-01-01T04:12:15;64.30;;;39.50;;
76867;SDS011;66168;45.478;11.060;2023-01-01T04:14:43;74.90;;;46.70;;
76867;SDS011;66168;45.478;11.060;2023-01-01T04:17:10;77.70;;;45.50;;
76867;SDS011;66168;45.478;11.060;2023-01-01T04:19:37;84.40;;;52.10;;
76867;SDS011;66168;45.478;11.060;2023-01-01T04:22:04;74.20;;;46.30;;
76867;SDS011;66168;45.478;11.060;2023-01-01T04:24:31;83.60;;;47.90;;
76867;SDS011;66168;45.478;11.060;2023-01-01T04:26:58;81.30;;;48.50;;
76867;SDS011;66168;45.478;11.060;2023-01-01T04:29:25;74.50;;;45.50;;
76867;SDS011;66168;45.478;11.060;2023-01-01T04:31:52;70.50;;;41.10;;
76867;SDS011;66168;45.478;11.060;2023-01-01T04:34:19;56.60;;;36.40;;
76867;SDS011;66168;45.478;11.060;2023-01-01T04:36:45;60.20;;;37.80;;
76867;SDS011;66168;45.478;11.060;2023-01-01T04:39:12;54.10;;;33.70;;
76867;SDS011;66168;45.478;11.060;2023-01-01T04:41:39;52.80;;;33.90;;
76867;SDS011;66168;45.478;11.060;2023-01-01T04:44:05;47.80;;;32.60;;
76867;SDS011;66168;45.478;11.060;2023-01-01T04:46:32;48.80;;;32.10;;
76867;SDS011;66168;45.478;11.060;2023-01-01T04:48:59;55.60;;;36.80;;
76867;SDS011;66168;45.478;11.060;2023-01-01T04:51:25;52.00;;;35.30;;
76867;SDS011;66168;45.478;11.060;2023-01-01T04:53:52;57.80;;;35.10;;
76867;SDS011;66168;45.478;11.060;2023-01-01T04:56:19;49.50;;;30.90;;
76867;SDS011;66168;45.478;11.060;2023-01-01T04:58:47;48.90;;;29.40;;
76867;SDS011;66168;45.478;11.060;2023-01-01T05:01:24;45.60;;;27.60;;
76867;SDS011;66168;45.478;11.060;2023-01-01T05:03:53;43.80;;;29.60;;
76867;SDS011;66168;45.478;11.060;2023-01-01T05:06:20;44.20;;;29.30;;
76867;SDS011;66168;45.478;11.060;2023-01-01T05:08:48;46.10;;;29.50;;
76867;SDS011;66168;45.478;11.060;2023-01-01T05:11:18;48.90;;;30.60;;
76867;SDS011;66168;45.478;11.060;2023-01-01T05:13:50;41.80;;;28.10;;
76867;SDS011;66168;45.478;11.060;2023-01-01T05:16:20;38.90;;;26.00;;
76867;SDS011;66168;45.478;11.060;2023-01-01T05:18:48;39.70;;;26.20;;
76867;SDS011;66168;45.478;11.060;2023-01-01T05:21:22;41.80;;;28.00;;
76867;SDS011;66168;45.478;11.060;2023-01-01T05:23:52;43.10;;;28.30;;
76867;SDS011;66168;45.478;11.060;2023-01-01T05:26:22;47.00;;;30.00;;
76867;SDS011;66168;45.478;11.060;2023-01-01T05:28:50;45.60;;;29.10;;
76867;SDS011;66168;45.478;11.060;2023-01-01T05:31:18;39.40;;;25.40;;
76867;SDS011;66168;45.478;11.060;2023-01-01T05:33:46;40.90;;;25.00;;
76867;SDS011;66168;45.478;11.060;2023-01-01T05:36:14;38.00;;;24.80;;
76867;SDS011;66168;45.478;11.060;2023-01-01T05:38:43;38.80;;;25.20;;
76867;SDS011;66168;45.478;11.060;2023-01-01T05:41:11;43.50;;;26.20;;
76867;SDS011;66168;45.478;11.060;2023-01-01T05:43:39;40.40;;;25.40;;
76867;SDS011;66168;45.478;11.060;2023-01-01T05:46:07;38.00;;;25.40;;
76867;SDS011;66168;45.478;11.060;2023-01-01T05:48:37;38.70;;;24.60;;
76867;SDS011;66168;45.478;11.060;2023-01-01T05:51:04;40.80;;;25.10;;
76867;SDS011;66168;45.478;11.060;2023-01-01T05:53:33;39.10;;;24.60;;
76867;SDS011;66168;45.478;11.060;2023-01-01T05:55:59;40.70;;;26.00;;
76867;SDS011;66168;45.478;11.060;2023-01-01T05:58:27;47.90;;;29.10;;
76867;SDS011;66168;45.478;11.060;2023-01-01T06:01:04;46.90;;;29.70;;
76867;SDS011;66168;45.478;11.060;2023-01-01T06:03:52;46.00;;;28.50;;
76867;SDS011;66168;45.478;11.060;2023-01-01T06:06:21;36.10;;;23.80;;
76867;SDS011;66168;45.478;11.060;2023-01-01T06:08:50;40.60;;;25.50;;
76867;SDS011;66168;45.478;11.060;2023-01-01T06:11:18;34.20;;;23.00;;
76867;SDS011;66168;45.478;11.060;2023-01-01T06:13:45;32.70;;;21.30;;
76867;SDS011;66168;45.478;11.060;2023-01-01T06:16:12;36.90;;;22.50;;
76867;SDS011;66168;45.478;11.060;2023-01-01T06:18:40;35.40;;;22.90;;
76867;SDS011;66168;45.478;11.060;2023-01-01T06:21:25;35.90;;;23.20;;
76867;SDS011;66168;45.478;11.060;2023-01-01T06:23:54;30.00;;;21.30;;
76867;SDS011;66168;45.478;11.060;2023-01-01T06:26:23;33.20;;;21.60;;
76867;SDS011;66168;45.478;11.060;2023-01-01T06:28:52;36.20;;;22.40;;
76867;SDS011;66168;45.478;11.060;2023-01-01T06:31:19;36.20;;;22.90;;
76867;SDS011;66168;45.478;11.060;2023-01-01T06:33:47;36.50;;;24.30;;
76867;SDS011;66168;45.478;11.060;2023-01-01T06:36:17;36.30;;;23.30;;
76867;SDS011;66168;45.478;11.060;2023-01-01T06:38:46;35.40;;;24.90;;
76867;SDS011;66168;45.478;11.060;2023-01-01T06:41:16;36.30;;;24.20;;
76867;SDS011;66168;45.478;11.060;2023-01-01T06:43:45;34.90;;;22.00;;
76867;SDS011;66168;45.478;11.060;2023-01-01T06:46:19;35.00;;;22.60;;
76867;SDS011;66168;45.478;11.060;2023-01-01T06:48:49;36.30;;;24.00;;
76867;SDS011;66168;45.478;11.060;2023-01-01T06:51:22;41.10;;;26.10;;
76867;SDS011;66168;45.478;11.060;2023-01-01T06:53:51;41.40;;;26.50;;
76867;SDS011;66168;45.478;11.060;2023-01-01T06:56:19;44.20;;;28.80;;
76867;SDS011;66168;45.478;11.060;2023-01-01T06:58:46;43.40;;;27.50;;
76867;SDS011;66168;45.478;11.060;2023-01-01T07:03:51;49.00;;;31.00;;
76867;SDS011;66168;45.478;11.060;2023-01-01T07:06:20;46.20;;;28.90;;
76867;SDS011;66168;45.478;11.060;2023-01-01T07:08:48;47.80;;;29.40;;
76867;SDS011;66168;45.478;11.060;2023-01-01T07:11:16;58.20;;;36.50;;
76867;SDS011;66168;45.478;11.060;2023-01-01T07:13:43;56.80;;;34.30;;
76867;SDS011;66168;45.478;11.060;2023-01-01T07:16:10;58.50;;;35.90;;
76867;SDS011;66168;45.478;11.060;2023-01-01T07:18:38;54.70;;;33.80;;
76867;SDS011;66168;45.478;11.060;2023-01-01T07:21:06;58.70;;;35.10;;
76867;SDS011;66168;45.478;11.060;2023-01-01T07:23:54;57.10;;;34.40;;
76867;SDS011;66168;45.478;11.060;2023-01-01T07:26:23;58.10;;;37.90;;
76867;SDS011;66168;45.478;11.060;2023-01-01T07:28:51;65.10;;;40.50;;
76867;SDS011;66168;45.478;11.060;2023-01-01T07:31:18;67.30;;;41.70;;
76867;SDS011;66168;45.478;11.060;2023-01-01T07:33:45;68.30;;;39.30;;
76867;SDS011;66168;45.478;11.060;2023-01-01T07:36:12;66.60;;;39.10;;
76867;SDS011;66168;45.478;11.060;2023-01-01T07:38:39;56.00;;;36.20;;
76867;SDS011;66168;45.478;11.060;2023-01-01T07:41:06;62.30;;;38.30;;
76867;SDS011;66168;45.478;11.060;2023-01-01T07:43:32;64.60;;;41.20;;
76867;SDS011;66168;45.478;11.060;2023-01-01T07:45:59;67.70;;;41.80;;
76867;SDS011;66168;45.478;11.060;2023-01-01T07:48:26;69.90;;;44.40;;
76867;SDS011;66168;45.478;11.060;2023-01-01T07:50:53;70.30;;;42.50;;
76867;SDS011;66168;45.478;11.060;2023-01-01T07:53:20;68.30;;;41.70;;
76867;SDS011;66168;45.478;11.060;2023-01-01T07:55:47;67.00;;;40.40;;
76867;SDS011;66168;45.478;11.060;2023-01-01T07:58:13;63.60;;;39.80;;
76867;SDS011;66168;45.478;11.060;2023-01-01T08:00:40;65.30;;;40.40;;
76867;SDS011;66168;45.478;11.060;2023-01-01T08:03:11;69.30;;;42.10;;
76867;SDS011;66168;45.478;11.060;2023-01-01T08:05:38;72.40;;;43.20;;
76867;SDS011;66168;45.478;11.060;2023-01-01T08:08:05;66.50;;;40.30;;
76867;SDS011;66168;45.478;11.060;2023-01-01T08:10:31;66.50;;;39.50;;
76867;SDS011;66168;45.478;11.060;2023-01-01T08:13:02;59.10;;;35.80;;
76867;SDS011;66168;45.478;11.060;2023-01-01T08:15:30;58.00;;;35.10;;
76867;SDS011;66168;45.478;11.060;2023-01-01T08:17:58;57.10;;;35.90;;
76867;SDS011;66168;45.478;11.060;2023-01-01T08:20:27;55.80;;;34.00;;
76867;SDS011;66168;45.478;11.060;2023-01-01T08:22:55;71.30;;;42.30;;
76867;SDS011;66168;45.478;11.060;2023-01-01T08:25:30;63.10;;;36.90;;
76867;SDS011;66168;45.478;11.060;2023-01-01T08:27:56;56.20;;;36.90;;
76867;SDS011;66168;45.478;11.060;2023-01-01T08:30:23;54.30;;;33.30;;
76867;SDS011;66168;45.478;11.060;2023-01-01T08:32:50;54.10;;;33.60;;
76867;SDS011;66168;45.478;11.060;2023-01-01T08:35:17;55.60;;;34.90;;
76867;SDS011;66168;45.478;11.060;2023-01-01T08:37:44;56.80;;;33.90;;
76867;SDS011;66168;45.478;11.060;2023-01-01T08:40:11;50.90;;;31.80;;
76867;SDS011;66168;45.478;11.060;2023-01-01T08:42:40;47.10;;;29.60;;
76867;SDS011;66168;45.478;11.060;2023-01-01T08:45:07;50.00;;;29.90;;
76867;SDS011;66168;45.478;11.060;2023-01-01T08:47:34;49.30;;;31.20;;
76867;SDS011;66168;45.478;11.060;2023-01-01T08:50:00;54.20;;;32.60;;
76867;SDS011;66168;45.478;11.060;2023-01-01T08:52:28;55.90;;;35.40;;
76867;SDS011;66168;45.478;11.060;2023-01-01T08:54:54;60.40;;;37.90;;
76867;SDS011;66168;45.478;11.060;2023-01-01T08:57:21;60.40;;;38.30;;
76867;SDS011;66168;45.478;11.060;2023-01-01T08:59:48;58.70;;;36.10;;
76867;SDS011;66168;45.478;11.060;2023-01-01T09:02:15;61.40;;;38.80;;
76867;SDS011;66168;45.478;11.060;2023-01-01T09:04:42;64.70;;;41.10;;
76867;SDS011;66168;45.478;11.060;2023-01-01T09:07:08;61.50;;;38.70;;
76867;SDS011;66168;45.478;11.060;2023-01-01T09:09:35;62.90;;;40.50;;
76867;SDS011;66168;45.478;11.060;2023-01-01T09:12:02;68.70;;;44.10;;
76867;SDS011;66168;45.478;11.060;2023-01-01T09:14:32;66.00;;;40.40;;
76867;SDS011;66168;45.478;11.060;2023-01-01T09:16:59;66.50;;;40.00;;
76867;SDS011;66168;45.478;11.060;2023-01-01T09:19:27;65.50;;;40.70;;
76867;SDS011;66168;45.478;11.060;2023-01-01T09:21:53;67.10;;;38.50;;
76867;SDS011;66168;45.478;11.060;2023-01-01T09:24:20;54.70;;;34.90;;
76867;SDS011;66168;45.478;11.060;2023-01-01T09:26:47;65.40;;;39.80;;
76867;SDS011;66168;45.478;11.060;2023-01-01T09:29:14;56.30;;;34.10;;
76867;SDS011;66168;45.478;11.060;2023-01-01T09:31:46;65.20;;;38.80;;
76867;SDS011;66168;45.478;11.060;2023-01-01T09:34:14;67.80;;;40.70;;
76867;SDS011;66168;45.478;11.060;2023-01-01T09:36:41;60.70;;;37.80;;
76867;SDS011;66168;45.478;11.060;2023-01-01T09:39:09;64.50;;;36.80;;
76867;SDS011;66168;45.478;11.060;2023-01-01T09:49:55;48.10;;;29.80;;
76867;SDS011;66168;45.478;11.060;2023-01-01T09:52:28;35.50;;;26.20;;
76867;SDS011;66168;45.478;11.060;2023-01-01T09:55:11;40.80;;;24.80;;
76867;SDS011;66168;45.478;11.060;2023-01-01T09:57:47;39.70;;;25.00;;
76867;SDS011;66168;45.478;11.060;2023-01-01T10:00:15;45.50;;;27.50;;
76867;SDS011;66168;45.478;11.060;2023-01-01T10:07:54;45.10;;;27.00;;
76867;SDS011;66168;45.478;11.060;2023-01-01T10:10:40;36.90;;;24.10;;
76867;SDS011;66168;45.478;11.060;2023-01-01T10:16:07;42.70;;;24.80;;
76867;SDS011;66168;45.478;11.060;2023-01-01T10:18:38;39.60;;;23.90;;
76867;SDS011;66168;45.478;11.060;2023-01-01T10:21:26;37.50;;;24.80;;
76867;SDS011;66168;45.478;11.060;2023-01-01T10:24:04;34.70;;;23.10;;
76867;SDS011;66168;45.478;11.060;2023-01-01T10:26:51;34.90;;;23.20;;
76867;SDS011;66168;45.478;11.060;2023-01-01T10:29:22;35.50;;;21.60;;
76867;SDS011;66168;45.478;11.060;2023-01-01T10:31:57;26.50;;;19.60;;
76867;SDS011;66168;45.478;11.060;2023-01-01T10:37:21;29.40;;;18.50;;
76867;SDS011;66168;45.478;11.060;2023-01-01T10:39:47;28.40;;;19.20;;
76867;SDS011;66168;45.478;11.060;2023-01-01T10:42:15;33.80;;;20.50;;
76867;SDS011;66168;45.478;11.060;2023-01-01T10:44:42;30.60;;;19.50;;
76867;SDS011;66168;45.478;11.060;2023-01-01T10:47:18;29.70;;;19.30;;
76867;SDS011;66168;45.478;11.060;2023-01-01T10:52:42;31.50;;;19.10;;
76867;SDS011;66168;45.478;11.060;2023-01-01T10:55:22;28.90;;;17.20;;
76867;SDS011;66168;45.478;11.060;2023-01-01T10:57:52;28.80;;;18.60;;
76867;SDS011;66168;45.478;11.060;2023-01-01T11:00:23;27.80;;;18.60;;
76867;SDS011;66168;45.478;11.060;2023-01-01T11:03:10;25.70;;;17.70;;
76867;SDS011;66168;45.478;11.060;2023-01-01T11:05:38;24.30;;;16.40;;
76867;SDS011;66168;45.478;11.060;2023-01-01T11:08:14;31.60;;;17.50;;
76867;SDS011;66168;45.478;11.060;2023-01-01T11:10:48;26.00;;;16.50;;
76867;SDS011;66168;45.478;11.060;2023-01-01T11:13:17;26.40;;;16.40;;
76867;SDS011;66168;45.478;11.060;2023-01-01T11:15:45;22.00;;;14.90;;
76867;SDS011;66168;45.478;11.060;2023-01-01T11:18:19;25.10;;;14.60;;
76867;SDS011;66168;45.478;11.060;2023-01-01T11:20:52;24.50;;;15.90;;
76867;SDS011;66168;45.478;11.060;2023-01-01T11:23:37;26.50;;;16.70;;
76867;SDS011;66168;45.478;11.060;2023-01-01T11:28:38;24.40;;;15.30;;
76867;SDS011;66168;45.478;11.060;2023-01-01T11:31:17;23.50;;;16.40;;
76867;SDS011;66168;45.478;11.060;2023-01-01T11:36:36;26.50;;;17.20;;
76867;SDS011;66168;45.478;11.060;2023-01-01T11:39:03;21.90;;;14.30;;
76867;SDS011;66168;45.478;11.060;2023-01-01T11:41:53;26.90;;;17.70;;
76867;SDS011;66168;45.478;11.060;2023-01-01T11:44:24;26.50;;;17.60;;
76867;SDS011;66168;45.478;11.060;2023-01-01T11:47:04;30.40;;;19.00;;
76867;SDS011;66168;45.478;11.060;2023-01-01T11:49:33;27.50;;;18.10;;
76867;SDS011;66168;45.478;11.060;2023-01-01T11:52:00;33.60;;;19.50;;
76867;SDS011;66168;45.478;11.060;2023-01-01T11:55:00;28.40;;;17.90;;
76867;SDS011;66168;45.478;11.060;2023-01-01T11:57:34;29.10;;;18.20;;
76867;SDS011;66168;45.478;11.060;2023-01-01T12:00:03;28.40;;;18.70;;
76867;SDS011;66168;45.478;11.060;2023-01-01T12:02:39;28.10;;;18.10;;
76867;SDS011;66168;45.478;11.060;2023-01-01T12:05:15;28.20;;;19.00;;
76867;SDS011;66168;45.478;11.060;2023-01-01T12:07:49;32.20;;;18.40;;
76867;SDS011;66168;45.478;11.060;2023-01-01T12:12:56;29.60;;;18.60;;
76867;SDS011;66168;45.478;11.060;2023-01-01T12:15:34;33.10;;;21.50;;
76867;SDS011;66168;45.478;11.060;2023-01-01T12:18:15;32.50;;;21.00;;
76867;SDS011;66168;45.478;11.060;2023-01-01T12:20:56;36.80;;;24.20;;
76867;SDS011;66168;45.478;11.060;2023-01-01T12:23:28;48.40;;;30.40;;
76867;SDS011;66168;45.478;11.060;2023-01-01T12:25:59;46.90;;;31.60;;
76867;SDS011;66168;45.478;11.060;2023-01-01T12:36:39;51.70;;;32.20;;
76867;SDS011;66168;45.478;11.060;2023-01-01T12:55:34;45.20;;;30.00;;
76867;SDS011;66168;45.478;11.060;2023-01-01T13:00:53;36.40;;;23.30;;
76867;SDS011;66168;45.478;11.060;2023-01-01T13:03:26;42.10;;;25.40;;
76867;SDS011;66168;45.478;11.060;2023-01-01T13:05:56;30.50;;;20.50;;
76867;SDS011;66168;45.478;11.060;2023-01-01T13:08:25;50.30;;;31.30;;
76867;SDS011;66168;45.478;11.060;2023-01-01T13:10:52;44.90;;;27.70;;
76867;SDS011;66168;45.478;11.060;2023-01-01T13:13:22;50.40;;;30.90;;
76867;SDS011;66168;45.478;11.060;2023-01-01T13:15:52;42.10;;;24.20;;
76867;SDS011;66168;45.478;11.060;2023-01-01T13:31:16;40.50;;;25.70;;
76867;SDS011;66168;45.478;11.060;2023-01-01T13:33:43;46.70;;;29.30;;
76867;SDS011;66168;45.478;11.060;2023-01-01T13:36:30;37.70;;;25.80;;
76867;SDS011;66168;45.478;11.060;2023-01-01T13:38:58;50.80;;;31.20;;
76867;SDS011;66168;45.478;11.060;2023-01-01T13:57:31;46.30;;;30.00;;
76867;SDS011;66168;45.478;11.060;2023-01-01T14:00:16;44.40;;;26.60;;
76867;SDS011;66168;45.478;11.060;2023-01-01T14:05:23;45.70;;;29.70;;
76867;SDS011;66168;45.478;11.060;2023-01-01T14:07:55;47.90;;;32.30;;
76867;SDS011;66168;45.478;11.060;2023-01-01T14:10:26;41.10;;;26.70;;
76867;SDS011;66168;45.478;11.060;2023-01-01T14:15:32;46.60;;;30.70;;
76867;SDS011;66168;45.478;11.060;2023-01-01T14:18:00;57.90;;;33.60;;
76867;SDS011;66168;45.478;11.060;2023-01-01T14:20:32;54.30;;;35.90;;
76867;SDS011;66168;45.478;11.060;2023-01-01T14:23:22;48.00;;;31.90;;
76867;SDS011;66168;45.478;11.060;2023-01-01T14:26:00;45.10;;;30.80;;
76867;SDS011;66168;45.478;11.060;2023-01-01T14:28:30;56.70;;;35.30;;
76867;SDS011;66168;45.478;11.060;2023-01-01T14:31:03;54.30;;;34.00;;
76867;SDS011;66168;45.478;11.060;2023-01-01T14:33:36;43.40;;;27.50;;
76867;SDS011;66168;45.478;11.060;2023-01-01T14:36:12;51.60;;;34.20;;
76867;SDS011;66168;45.478;11.060;2023-01-01T14:38:47;55.00;;;33.30;;
76867;SDS011;66168;45.478;11.060;2023-01-01T14:44:08;54.70;;;35.60;;
76867;SDS011;66168;45.478;11.060;2023-01-01T14:46:39;57.70;;;35.90;;
76867;SDS011;66168;45.478;11.060;2023-01-01T14:49:08;53.70;;;33.90;;
76867;SDS011;66168;45.478;11.060;2023-01-01T14:51:37;53.00;;;36.60;;
76867;SDS011;66168;45.478;11.060;2023-01-01T14:54:13;55.80;;;34.10;;
76867;SDS011;66168;45.478;11.060;2023-01-01T14:56:45;56.00;;;35.00;;
76867;SDS011;66168;45.478;11.060;2023-01-01T15:02:15;59.80;;;37.30;;
76867;SDS011;66168;45.478;11.060;2023-01-01T15:04:47;55.50;;;34.40;;
76867;SDS011;66168;45.478;11.060;2023-01-01T15:07:53;52.10;;;32.50;;
76867;SDS011;66168;45.478;11.060;2023-01-01T15:10:08;56.00;;;33.50;;
76867;SDS011;66168;45.478;11.060;2023-01-01T15:12:37;50.70;;;33.50;;
76867;SDS011;66168;45.478;11.060;2023-01-01T15:15:31;55.70;;;35.80;;
76867;SDS011;66168;45.478;11.060;2023-01-01T15:18:05;54.30;;;34.00;;
76867;SDS011;66168;45.478;11.060;2023-01-01T15:20:52;56.20;;;35.20;;
76867;SDS011;66168;45.478;11.060;2023-01-01T15:23:21;54.90;;;32.80;;
76867;SDS011;66168;45.478;11.060;2023-01-01T15:25:47;50.00;;;32.00;;
76867;SDS011;66168;45.478;11.060;2023-01-01T15:28:17;47.50;;;31.20;;
76867;SDS011;66168;45.478;11.060;2023-01-01T15:30:52;49.80;;;31.20;;
76867;SDS011;66168;45.478;11.060;2023-01-01T15:33:20;47.20;;;32.20;;
76867;SDS011;66168;45.478;11.060;2023-01-01T15:35:48;46.60;;;30.70;;
76867;SDS011;66168;45.478;11.060;2023-01-01T15:40:52;43.00;;;29.40;;
76867;SDS011;66168;45.478;11.060;2023-01-01T15:43:29;50.20;;;32.70;;
76867;SDS011;66168;45.478;11.060;2023-01-01T15:46:10;49.80;;;32.10;;
76867;SDS011;66168;45.478;11.060;2023-01-01T15:48:51;50.50;;;32.00;;
76867;SDS011;66168;45.478;11.060;2023-01-01T15:51:19;48.10;;;30.70;;
76867;SDS011;66168;45.478;11.060;2023-01-01T15:53:53;44.80;;;30.30;;
76867;SDS011;66168;45.478;11.060;2023-01-01T15:56:24;47.60;;;31.00;;
76867;SDS011;66168;45.478;11.060;2023-01-01T15:58:55;46.10;;;29.60;;
76867;SDS011;66168;45.478;11.060;2023-01-01T16:01:34;46.90;;;29.90;;
76867;SDS011;66168;45.478;11.060;2023-01-01T16:04:14;50.00;;;31.30;;
76867;SDS011;66168;45.478;11.060;2023-01-01T16:06:53;49.60;;;30.70;;
76867;SDS011;66168;45.478;11.060;2023-01-01T16:09:23;59.40;;;36.00;;
76867;SDS011;66168;45.478;11.060;2023-01-01T16:11:50;56.40;;;35.10;;
76867;SDS011;66168;45.478;11.060;2023-01-01T16:14:19;54.60;;;35.70;;
76867;SDS011;66168;45.478;11.060;2023-01-01T16:16:52;50.80;;;31.90;;
76867;SDS011;66168;45.478;11.060;2023-01-01T16:19:22;50.90;;;31.40;;
76867;SDS011;66168;45.478;11.060;2023-01-01T16:21:50;48.70;;;31.00;;
76867;SDS011;66168;45.478;11.060;2023-01-01T16:24:17;50.00;;;29.90;;
76867;SDS011;66168;45.478;11.060;2023-01-01T16:26:45;46.30;;;29.60;;
76867;SDS011;66168;45.478;11.060;2023-01-01T16:29:13;45.00;;;28.40;;
76867;SDS011;66168;45.478;11.060;2023-01-01T16:31:40;43.60;;;28.10;;
76867;SDS011;66168;45.478;11.060;2023-01-01T16:34:11;44.10;;;29.20;;